Terminal Aerodrome Forecast
Issued by NWS

Current Version | Previous Version | Text Only | Print | Product List | Glossary Off
Versions: 1 2 3 4 5 6 7 8 9 10 11 12 13 14 15 16 17 18 19 20 21

900
FTUS41 KILN 210538
TAFLUK
TAF
KLUK 210538Z 2106/2206 12004KT P6SM OVC250
     FM211500 19007KT P6SM SCT035 OVC190
     FM212100 20008KT P6SM VCSH SCT035 OVC080
     FM220200 19004KT 5SM BR SCT035 OVC045
     FM220500 VRB03KT 3SM BR OVC035=

USA.gov is the U.S. government's official web portal to all federal, state and local government web resources and services.